Terminal Aerodrome Forecast
Issued by NWS

Current Version | Previous Version | Text Only | Print | Product List | Glossary On
Versions: 1 2 3 4 5 6 7 8 9 10 11 12 13 14 15 16 17 18 19 20 21 22 23 24 25 26 27 28 29 30
885
FTUS45 KLKN 190520
TAFEKO
TAF
KEKO 190520Z 1906/2006 21020G28KT P6SM VCSH SCT025 BKN060
     FM190900 22013G20KT 6SM -SHRASN BKN025 OVC060
     FM191200 27012G17KT 4SM -SHSN OVC025
     FM191800 26013G22KT 3SM -SN BLSN BKN020 OVC060
     FM200200 32008KT 6SM -SN BKN035 OVC060=

USA.gov is the U.S. government's official web portal to all federal, state and local government web resources and services.